createdAt,value
2017-07-15T00:01:07.034Z,85.30
2017-07-15T00:03:33.098Z,85.20
2017-07-15T00:05:59.892Z,85.60
2017-07-15T00:08:25.961Z,85.50
2017-07-15T00:10:51.998Z,85.30
2017-07-15T00:13:18.033Z,85.50
2017-07-15T00:15:44.074Z,85.80
2017-07-15T00:18:10.098Z,86.20
2017-07-15T00:20:36.173Z,86.00
2017-07-15T00:23:02.945Z,86.30
2017-07-15T00:25:28.981Z,86.30
2017-07-15T00:27:55.028Z,86.50
2017-07-15T00:30:21.062Z,86.40
2017-07-15T00:32:47.107Z,86.20
2017-07-15T00:35:13.162Z,86.00
2017-07-15T00:37:39.214Z,85.90
2017-07-15T00:40:05.270Z,86.00
2017-07-15T00:42:31.338Z,86.20
2017-07-15T00:44:57.410Z,86.50
2017-07-15T00:47:23.478Z,86.70
2017-07-15T00:49:50.264Z,87.30
2017-07-15T00:52:16.307Z,87.30
2017-07-15T00:54:42.366Z,86.90
2017-07-15T00:57:15.417Z,86.50
2017-07-15T00:59:41.458Z,86.70
2017-07-15T01:02:07.505Z,86.70
2017-07-15T01:04:33.542Z,86.60
2017-07-15T01:07:00.353Z,86.50
2017-07-15T01:09:27.128Z,86.60
2017-07-15T01:11:53.162Z,86.20
2017-07-15T01:14:19.195Z,86.70
2017-07-15T01:16:45.970Z,87.10
2017-07-15T01:19:12.039Z,87.00
2017-07-15T01:21:38.089Z,86.50
2017-07-15T01:24:04.125Z,86.60
2017-07-15T01:26:30.149Z,86.90
2017-07-15T01:28:56.189Z,87.00
2017-07-15T01:31:22.233Z,87.20
2017-07-15T01:33:48.270Z,86.90
2017-07-15T01:36:14.326Z,87.10
2017-07-15T01:38:40.366Z,87.10
2017-07-15T01:41:06.398Z,87.20
2017-07-15T01:43:32.446Z,87.30
2017-07-15T01:45:58.473Z,87.10
2017-07-15T01:48:24.530Z,87.00
2017-07-15T01:50:50.650Z,87.30
2017-07-15T01:53:17.425Z,87.60
2017-07-15T01:55:43.462Z,87.60
2017-07-15T01:58:09.482Z,87.10
2017-07-15T02:00:36.361Z,88.10
2017-07-15T02:03:02.401Z,88.00
2017-07-15T02:05:28.433Z,88.10
2017-07-15T02:07:55.214Z,88.30
2017-07-15T02:10:21.242Z,88.20
2017-07-15T02:12:47.306Z,88.40
2017-07-15T02:15:13.348Z,88.60
2017-07-15T02:17:39.379Z,88.70
2017-07-15T02:20:05.398Z,88.90
2017-07-15T02:22:32.196Z,88.60
2017-07-15T02:24:58.226Z,88.60
2017-07-15T02:27:24.303Z,88.70
2017-07-15T02:29:50.357Z,88.40
2017-07-15T02:32:17.125Z,88.00
2017-07-15T02:34:43.164Z,87.90
2017-07-15T02:37:09.199Z,88.20
2017-07-15T02:39:35.972Z,88.80
2017-07-15T02:42:02.016Z,88.20
2017-07-15T02:44:28.033Z,88.40
2017-07-15T02:46:54.074Z,88.30
2017-07-15T02:49:20.124Z,87.70
2017-07-15T02:51:46.174Z,87.40
2017-07-15T02:54:12.957Z,87.70
2017-07-15T02:56:38.979Z,87.60
2017-07-15T02:59:05.010Z,87.80
2017-07-15T03:01:31.790Z,87.70
2017-07-15T03:03:57.821Z,87.70
2017-07-15T03:06:23.906Z,87.50
2017-07-15T03:08:49.942Z,87.30
2017-07-15T03:11:16.738Z,87.40
2017-07-15T03:13:42.750Z,86.70
2017-07-15T03:16:08.781Z,87.00
2017-07-15T03:18:34.799Z,87.00
2017-07-15T03:21:01.594Z,87.50
2017-07-15T03:23:27.637Z,87.40
2017-07-15T03:25:53.670Z,86.70
2017-07-15T03:28:19.702Z,86.50
2017-07-15T03:30:45.774Z,86.40
2017-07-15T03:33:12.545Z,86.60
2017-07-15T03:35:38.554Z,86.00
2017-07-15T03:38:04.597Z,85.60
2017-07-15T03:40:30.622Z,86.00
2017-07-15T03:42:56.642Z,85.70
2017-07-15T03:45:23.407Z,85.70
2017-07-15T03:47:49.433Z,85.60
2017-07-15T03:50:15.498Z,85.90
2017-07-15T05:14:37.656Z,85.20
2017-07-15T05:17:03.681Z,90.00
2017-07-15T05:19:29.778Z,90.00
2017-07-15T05:21:55.888Z,89.10
2017-07-15T05:24:22.682Z,89.10
2017-07-15T05:26:48.814Z,89.10
2017-07-15T05:29:14.855Z,89.20
2017-07-15T05:31:40.929Z,88.80
2017-07-15T05:34:07.715Z,88.70
2017-07-15T05:36:33.878Z,88.30
2017-07-15T05:39:00.011Z,87.80
2017-07-15T05:41:26.191Z,87.60
2017-07-15T05:43:52.284Z,87.10
2017-07-15T05:46:19.141Z,87.70
2017-07-15T05:48:45.247Z,87.80
2017-07-15T05:51:18.198Z,88.40
2017-07-15T05:53:44.998Z,87.80
2017-07-15T05:56:11.081Z,87.80
2017-07-15T05:58:37.110Z,88.60
2017-07-15T06:01:03.149Z,88.50
2017-07-15T06:03:29.953Z,88.30
2017-07-15T06:05:55.990Z,88.80
2017-07-15T06:08:22.054Z,88.90
2017-07-15T06:10:48.113Z,88.50
2017-07-15T06:13:14.914Z,87.60
2017-07-15T06:15:40.961Z,87.50
2017-07-15T06:18:07.006Z,87.80
2017-07-15T06:20:33.050Z,87.90
2017-07-15T06:22:59.092Z,87.60
2017-07-15T06:25:25.128Z,87.60
2017-07-15T06:27:51.166Z,87.50
2017-07-15T06:30:17.198Z,86.90
2017-07-15T06:32:43.996Z,86.50
2017-07-15T06:35:10.025Z,86.40
2017-07-15T06:37:36.074Z,86.40
2017-07-15T06:40:02.121Z,86.80
2017-07-15T06:42:28.162Z,86.80
2017-07-15T06:44:54.962Z,86.50
2017-07-15T06:47:21.023Z,86.30
2017-07-15T06:49:47.129Z,86.00
2017-07-15T06:52:13.178Z,85.90
2017-07-15T06:54:39.239Z,86.00
2017-07-15T06:57:06.002Z,84.90
2017-07-15T06:59:39.145Z,84.90
2017-07-15T07:02:05.205Z,85.90
2017-07-15T07:04:31.242Z,86.00
2017-07-15T07:06:58.046Z,85.60
2017-07-15T07:09:24.067Z,85.50
2017-07-15T07:11:50.102Z,85.60
2017-07-15T07:14:16.881Z,84.40
2017-07-15T07:16:42.937Z,84.40
2017-07-15T07:19:08.982Z,84.40
2017-07-15T07:21:35.021Z,83.40
2017-07-15T07:24:01.058Z,83.00
2017-07-15T07:26:27.853Z,82.60
2017-07-15T07:28:53.888Z,82.40
2017-07-15T07:31:20.662Z,83.00
2017-07-15T07:33:46.714Z,82.80
2017-07-15T07:36:12.744Z,83.60
2017-07-15T07:38:39.513Z,83.60
2017-07-15T07:41:05.550Z,83.60
2017-07-15T07:43:32.334Z,83.20
2017-07-15T07:45:58.351Z,83.10
2017-07-15T07:48:24.430Z,83.00
2017-07-15T07:50:50.461Z,83.60
2017-07-15T07:53:16.553Z,83.30
2017-07-15T07:55:42.633Z,83.10
2017-07-15T07:58:16.542Z,82.40
2017-07-15T08:00:42.577Z,82.30
2017-07-15T08:03:08.614Z,81.80
2017-07-15T08:05:34.700Z,81.50
2017-07-15T08:08:00.774Z,81.70
2017-07-15T08:10:26.893Z,81.40
2017-07-15T08:12:52.965Z,81.30
2017-07-15T08:15:19.006Z,80.60
2017-07-15T08:17:45.117Z,80.70
2017-07-15T08:20:11.270Z,79.80
2017-07-15T08:22:37.330Z,79.90
2017-07-15T08:25:03.474Z,80.30
2017-07-15T08:27:29.543Z,79.20
2017-07-15T08:29:56.322Z,78.10
2017-07-15T08:32:22.374Z,78.10
2017-07-15T08:34:49.170Z,77.70
2017-07-15T08:37:15.206Z,77.70
2017-07-15T08:39:41.263Z,77.50
2017-07-15T08:42:07.304Z,77.70
2017-07-15T08:44:33.366Z,77.20
2017-07-15T08:46:59.405Z,77.30
2017-07-15T08:49:25.436Z,75.70
2017-07-15T08:51:51.478Z,76.00
2017-07-15T08:54:17.505Z,75.20
2017-07-15T08:56:43.569Z,74.40
2017-07-15T08:59:09.614Z,73.70
2017-07-15T09:01:35.655Z,73.40
2017-07-15T09:04:01.705Z,74.50
2017-07-15T09:06:28.518Z,71.50
2017-07-15T09:08:54.551Z,71.40
2017-07-15T09:11:21.315Z,69.70
2017-07-15T09:13:47.410Z,69.70
2017-07-15T09:16:13.429Z,71.20
2017-07-15T09:18:39.502Z,69.90
2017-07-15T09:21:05.514Z,70.10
2017-07-15T09:23:31.584Z,69.30
2017-07-15T09:25:57.621Z,70.10
2017-07-15T09:28:24.411Z,68.80
2017-07-15T09:30:50.455Z,68.90
2017-07-15T09:33:17.243Z,65.90
2017-07-15T09:35:43.281Z,65.30
2017-07-15T09:38:24.378Z,65.90
2017-07-15T09:40:50.661Z,66.00
2017-07-15T09:43:16.809Z,62.60
2017-07-15T09:45:42.869Z,63.60
2017-07-15T09:48:09.037Z,61.70
2017-07-15T09:50:35.925Z,59.30
2017-07-15T09:53:02.765Z,60.70
2017-07-15T09:55:28.829Z,60.70
2017-07-15T09:57:54.889Z,61.90
2017-07-15T10:00:21.700Z,59.80
2017-07-15T10:02:48.472Z,59.10
2017-07-15T10:05:14.591Z,59.10
2017-07-15T10:07:40.648Z,59.60
2017-07-15T10:10:07.423Z,57.50
2017-07-15T10:12:33.453Z,57.40
2017-07-15T10:14:59.469Z,53.50
2017-07-15T10:17:25.510Z,55.10
2017-07-15T10:19:52.261Z,56.40
2017-07-15T10:22:18.282Z,56.40
2017-07-15T10:24:44.329Z,53.70
2017-07-15T10:27:10.377Z,50.00
2017-07-15T10:29:36.402Z,50.20
2017-07-15T10:32:02.469Z,48.70
2017-07-15T10:34:29.282Z,51.80
2017-07-15T10:36:56.058Z,53.20
2017-07-15T10:39:22.116Z,53.20
2017-07-15T10:41:48.168Z,51.70
2017-07-15T10:44:14.197Z,50.70
2017-07-15T10:46:40.214Z,54.00
2017-07-15T10:49:06.251Z,54.70
2017-07-15T10:51:32.309Z,51.00
2017-07-15T10:53:58.359Z,51.90
2017-07-15T10:56:24.394Z,52.20
2017-07-15T10:58:51.227Z,55.90
2017-07-15T11:01:18.051Z,57.50
2017-07-15T11:03:44.826Z,56.90
2017-07-15T11:06:10.862Z,56.90
2017-07-15T11:08:36.886Z,57.70
2017-07-15T11:11:03.654Z,53.40
2017-07-15T11:13:29.686Z,53.30
2017-07-15T11:15:55.718Z,54.40
2017-07-15T11:18:21.734Z,55.20
2017-07-15T11:20:47.767Z,52.10
2017-07-15T11:23:13.824Z,51.60
2017-07-15T11:25:39.868Z,51.90
2017-07-15T11:28:06.667Z,43.80
2017-07-15T11:30:32.718Z,43.90
2017-07-15T11:32:58.765Z,44.40
2017-07-15T11:35:24.813Z,43.50
2017-07-15T11:37:51.602Z,46.80
2017-07-15T11:40:17.642Z,46.40
2017-07-15T11:42:43.686Z,44.30
2017-07-15T11:45:09.734Z,47.80
2017-07-15T11:47:35.793Z,48.20
2017-07-15T11:50:02.561Z,53.00
2017-07-15T11:52:28.594Z,53.10
2017-07-15T11:54:54.614Z,55.40
2017-07-15T11:57:20.642Z,52.50
2017-07-15T11:59:47.493Z,56.20
2017-07-15T12:02:14.222Z,56.20
2017-07-15T12:04:40.386Z,51.20
2017-07-15T12:07:06.422Z,44.90
2017-07-15T12:09:32.462Z,43.80
2017-07-15T12:11:58.493Z,42.70
2017-07-15T12:14:24.514Z,43.90
2017-07-15T12:16:50.553Z,44.30
2017-07-15T12:19:17.334Z,46.90
2017-07-15T12:21:43.380Z,46.90
2017-07-15T12:24:10.185Z,49.60
2017-07-15T12:26:36.253Z,49.60
2017-07-15T12:29:02.304Z,47.60
2017-07-15T12:31:28.341Z,49.70
2017-07-15T12:33:54.370Z,48.10
2017-07-15T12:36:20.409Z,52.10
2017-07-15T12:38:46.447Z,51.10
2017-07-15T12:41:13.241Z,49.70
2017-07-15T12:43:39.263Z,49.50
2017-07-15T12:46:05.302Z,52.50
2017-07-15T12:48:31.337Z,50.70
2017-07-15T12:50:57.366Z,53.20
2017-07-15T12:53:23.430Z,53.00
2017-07-15T12:55:50.205Z,51.20
2017-07-15T12:58:16.226Z,51.20
2017-07-15T13:00:42.289Z,51.40
2017-07-15T13:03:08.333Z,51.10
2017-07-15T13:05:34.360Z,54.70
2017-07-15T13:08:00.417Z,54.40
2017-07-15T13:10:26.475Z,54.00
2017-07-15T13:12:52.517Z,53.10
2017-07-15T13:15:19.362Z,50.40
2017-07-15T13:17:45.404Z,50.30
2017-07-15T13:20:11.441Z,51.80
2017-07-15T13:22:37.500Z,48.20
2017-07-15T13:25:03.553Z,50.20
2017-07-15T13:27:29.597Z,50.10
2017-07-15T13:29:55.627Z,49.90
2017-07-15T13:32:21.717Z,49.50
2017-07-15T13:34:47.741Z,51.50
2017-07-15T13:37:13.814Z,52.70
2017-07-15T13:39:47.550Z,46.70
2017-07-15T13:42:13.594Z,46.00
2017-07-15T13:44:39.636Z,47.30
2017-07-15T13:47:06.402Z,40.50
2017-07-15T13:49:32.471Z,40.30
2017-07-15T13:51:58.506Z,40.00
2017-07-15T13:54:24.622Z,37.50
2017-07-15T13:56:50.675Z,36.00
2017-07-15T13:59:16.716Z,36.10
2017-07-15T14:01:42.741Z,32.90
2017-07-15T14:04:08.802Z,32.00
2017-07-15T14:06:35.859Z,34.70
2017-07-15T14:09:01.940Z,34.70
2017-07-15T14:11:28.082Z,34.50
2017-07-15T14:13:54.346Z,30.50
2017-07-15T14:16:20.438Z,31.90
2017-07-15T14:18:46.478Z,28.80
2017-07-15T14:21:12.629Z,29.80
2017-07-15T14:23:38.685Z,32.20
2017-07-15T14:26:04.697Z,30.80
2017-07-15T14:28:30.721Z,35.40
2017-07-15T14:30:56.746Z,33.40
2017-07-15T14:33:22.877Z,35.60
2017-07-15T14:35:48.954Z,35.60
2017-07-15T14:38:14.982Z,38.40
2017-07-15T14:40:41.762Z,41.60
2017-07-15T14:43:07.793Z,41.50
2017-07-15T14:45:33.830Z,38.90
2017-07-15T14:47:59.867Z,40.90
2017-07-15T14:50:25.895Z,41.90
2017-07-15T14:52:51.964Z,36.40
2017-07-15T14:55:17.994Z,37.60
2017-07-15T14:57:44.022Z,40.70
2017-07-15T15:00:10.078Z,39.40
2017-07-15T15:02:36.893Z,38.50
2017-07-15T15:05:02.952Z,38.60
2017-07-15T15:07:28.978Z,39.80
2017-07-15T15:09:55.004Z,40.30
2017-07-15T15:12:21.046Z,41.60
2017-07-15T15:14:47.073Z,45.20
2017-07-15T15:17:13.110Z,44.00
2017-07-15T15:19:39.193Z,45.60
2017-07-15T15:22:05.231Z,45.90
2017-07-15T15:24:31.289Z,47.00
2017-07-15T15:26:57.284Z,47.90
2017-07-15T15:29:24.044Z,46.40
2017-07-15T15:31:50.089Z,46.80
2017-07-15T15:34:16.117Z,47.30
2017-07-15T15:36:42.114Z,47.40
2017-07-15T15:39:08.155Z,48.80
2017-07-15T15:41:34.165Z,49.20
2017-07-15T15:44:00.206Z,47.70
2017-07-15T15:46:26.300Z,50.50
2017-07-15T15:48:52.355Z,49.00
2017-07-15T15:51:18.427Z,50.50
2017-07-15T15:53:44.505Z,48.60
2017-07-15T15:56:11.283Z,47.20
2017-07-15T15:58:37.318Z,47.10
2017-07-15T16:01:03.355Z,43.20
2017-07-15T16:03:30.192Z,41.40
2017-07-15T16:05:56.246Z,41.40
2017-07-15T16:08:22.441Z,40.00
2017-07-15T16:10:48.499Z,40.20
2017-07-15T16:13:14.555Z,40.70
2017-07-15T16:15:40.610Z,39.50
2017-07-15T16:18:06.782Z,40.00
2017-07-15T16:20:32.824Z,40.30
2017-07-15T16:22:58.872Z,41.50
2017-07-15T16:25:24.983Z,42.40
2017-07-15T16:27:51.034Z,43.20
2017-07-15T16:30:17.090Z,43.10
2017-07-15T16:32:43.178Z,41.80
2017-07-15T16:35:09.261Z,42.90
2017-07-15T16:37:35.282Z,40.40
2017-07-15T16:40:01.334Z,42.00
2017-07-15T16:42:27.370Z,42.90
2017-07-15T16:44:53.466Z,43.10
2017-07-15T16:47:19.493Z,41.80
2017-07-15T16:49:45.780Z,40.70
2017-07-15T16:52:11.885Z,39.90
2017-07-15T16:54:38.005Z,41.50
2017-07-15T16:57:04.073Z,42.70
2017-07-15T16:59:30.115Z,43.80
2017-07-15T17:01:56.178Z,44.80
2017-07-15T17:04:22.255Z,46.00
2017-07-15T17:06:48.338Z,47.00
2017-07-15T17:09:14.404Z,48.20
2017-07-15T17:11:40.567Z,49.70
2017-07-15T17:14:06.619Z,49.80
2017-07-15T17:16:32.697Z,49.50
2017-07-15T17:18:58.709Z,49.60
2017-07-15T17:21:24.746Z,50.80
2017-07-15T17:23:50.782Z,50.10
2017-07-15T17:26:16.807Z,51.40
2017-07-15T17:28:42.897Z,50.80
2017-07-15T17:31:09.684Z,52.90
2017-07-15T17:33:35.746Z,52.90
2017-07-15T17:36:02.602Z,54.00
2017-07-15T17:38:28.650Z,54.00
2017-07-15T17:40:54.703Z,54.10
2017-07-15T17:43:20.763Z,55.00
2017-07-15T17:45:46.794Z,55.00
2017-07-15T17:48:12.824Z,56.00
2017-07-15T17:50:39.610Z,56.00
2017-07-15T17:53:05.687Z,55.90
2017-07-15T17:55:31.726Z,57.10
2017-07-15T17:57:57.751Z,56.50
2017-07-15T18:00:23.797Z,57.00
2017-07-15T18:02:49.856Z,57.40
2017-07-15T18:05:30.994Z,57.60
2017-07-15T18:07:57.138Z,57.80
2017-07-15T18:10:23.179Z,56.40
2017-07-15T18:12:49.239Z,56.70
2017-07-15T18:15:15.306Z,57.90
2017-07-15T18:17:41.342Z,57.70
2017-07-15T18:20:07.386Z,58.10
2017-07-15T18:22:33.444Z,57.90
2017-07-15T18:24:59.508Z,58.40
2017-07-15T18:27:26.323Z,58.90
2017-07-15T18:29:52.411Z,58.90
2017-07-15T18:32:18.478Z,58.00
2017-07-15T18:34:44.537Z,59.20
2017-07-15T18:37:10.631Z,59.00
2017-07-15T18:39:37.281Z,59.00
2017-07-15T18:42:03.386Z,58.40
2017-07-15T18:44:29.432Z,58.90
2017-07-15T18:46:55.479Z,60.00
2017-07-15T18:49:21.534Z,59.80
2017-07-15T18:51:47.596Z,59.70
2017-07-15T18:54:13.650Z,59.80
2017-07-15T18:56:40.446Z,60.60
2017-07-15T18:59:06.523Z,60.10
2017-07-15T19:01:32.572Z,60.70
2017-07-15T19:03:58.615Z,60.90
2017-07-15T19:06:25.425Z,61.30
2017-07-15T19:08:51.470Z,61.30
2017-07-15T19:11:17.508Z,62.40
2017-07-15T19:13:43.583Z,61.90
2017-07-15T19:16:09.614Z,61.60
2017-07-15T19:18:35.720Z,62.30
2017-07-15T19:21:01.750Z,62.60
2017-07-15T19:23:27.804Z,63.40
2017-07-15T19:25:54.640Z,63.40
2017-07-15T19:28:20.658Z,63.40
2017-07-15T19:30:46.710Z,63.30
2017-07-15T19:33:12.745Z,64.00
2017-07-15T19:35:38.751Z,63.70
2017-07-15T19:38:04.795Z,64.20
2017-07-15T19:40:30.827Z,64.20
2017-07-15T19:42:56.874Z,65.10
2017-07-15T19:45:22.967Z,64.90
2017-07-15T19:47:49.014Z,65.10
2017-07-15T19:50:15.142Z,65.60
2017-07-15T19:52:41.175Z,64.80
2017-07-15T19:55:07.233Z,65.30
2017-07-15T19:57:33.260Z,65.60
2017-07-15T19:59:59.287Z,65.60
2017-07-15T20:02:25.324Z,66.50
2017-07-15T20:04:51.375Z,65.30
2017-07-15T20:07:18.172Z,66.70
2017-07-15T20:09:44.256Z,66.70
2017-07-15T20:12:10.318Z,66.70
2017-07-15T20:14:37.125Z,67.00
2017-07-15T20:17:03.171Z,67.00
2017-07-15T20:19:29.206Z,66.80
2017-07-15T20:21:55.255Z,67.20
2017-07-15T20:24:21.300Z,67.70
2017-07-15T20:26:47.341Z,67.40
2017-07-15T20:29:13.362Z,67.60
2017-07-15T20:31:39.433Z,67.70
2017-07-15T20:34:05.466Z,67.30
2017-07-15T20:36:37.675Z,67.90
2017-07-15T20:39:04.455Z,69.20
2017-07-15T20:41:30.499Z,69.20
2017-07-15T20:43:57.287Z,68.70
2017-07-15T20:46:23.328Z,68.60
2017-07-15T20:48:49.381Z,68.80
2017-07-15T20:51:15.450Z,69.20
2017-07-15T20:53:48.298Z,70.10
2017-07-15T20:56:14.348Z,69.70
2017-07-15T20:58:40.442Z,70.10
2017-07-15T21:01:07.247Z,70.30
2017-07-15T21:03:33.295Z,70.20
2017-07-15T21:05:59.320Z,70.80
2017-07-15T21:08:25.378Z,71.00
2017-07-15T21:10:51.471Z,71.00
2017-07-15T21:13:17.516Z,70.80
2017-07-15T21:15:44.306Z,70.80
2017-07-15T21:18:10.359Z,70.80
2017-07-15T21:20:37.186Z,71.30
2017-07-15T21:23:03.978Z,70.70
2017-07-15T21:25:30.053Z,70.60
2017-07-15T21:27:56.108Z,71.90
2017-07-15T21:30:22.157Z,70.50
2017-07-15T21:32:48.207Z,71.50
2017-07-15T21:35:14.218Z,71.60
2017-07-15T21:37:40.275Z,71.70
2017-07-15T21:40:06.341Z,72.00
2017-07-15T21:42:32.390Z,71.90
2017-07-15T21:44:58.437Z,71.60
2017-07-15T21:47:24.511Z,72.50
2017-07-15T21:49:50.558Z,72.60
2017-07-15T21:52:16.571Z,73.10
2017-07-15T21:54:42.620Z,72.80
2017-07-15T21:57:08.642Z,73.10
2017-07-15T21:59:34.687Z,73.30
2017-07-15T22:02:00.749Z,73.20
2017-07-15T22:04:27.540Z,73.80
2017-07-15T22:06:53.623Z,73.60
2017-07-15T22:09:19.677Z,73.70
2017-07-15T22:11:45.726Z,74.10
2017-07-15T22:14:11.742Z,74.30
2017-07-15T22:16:38.500Z,74.60
2017-07-15T22:19:04.518Z,74.50
2017-07-15T22:21:30.551Z,74.50
2017-07-15T22:23:56.580Z,74.60
2017-07-15T22:26:23.344Z,74.90
2017-07-15T22:28:49.360Z,74.80
2017-07-15T22:31:15.397Z,74.60
2017-07-15T22:33:41.409Z,75.10
2017-07-15T22:36:07.442Z,75.20
2017-07-15T22:38:33.484Z,75.40
2017-07-15T22:40:59.496Z,75.40
2017-07-15T22:43:25.524Z,75.30
2017-07-15T22:45:51.839Z,75.60
2017-07-15T22:48:17.867Z,75.20
2017-07-15T22:50:43.895Z,75.40
2017-07-15T22:53:10.670Z,75.80
2017-07-15T22:55:36.696Z,75.80
2017-07-15T22:58:02.714Z,75.60
2017-07-15T23:00:28.751Z,75.40
2017-07-15T23:02:54.789Z,76.00
2017-07-15T23:05:20.834Z,75.90
2017-07-15T23:07:46.898Z,75.20
2017-07-15T23:10:12.916Z,76.00
2017-07-15T23:12:38.925Z,75.70
2017-07-15T23:15:04.938Z,76.50
2017-07-15T23:17:30.956Z,76.60
2017-07-15T23:19:57.010Z,76.40
2017-07-15T23:22:23.765Z,76.60
2017-07-15T23:24:49.798Z,76.50
2017-07-15T23:27:15.811Z,76.80
2017-07-15T23:29:41.824Z,76.30
2017-07-15T23:32:07.836Z,76.50
2017-07-15T23:34:33.859Z,76.70
2017-07-15T23:36:59.884Z,77.20
2017-07-15T23:39:25.894Z,76.60
2017-07-15T23:41:51.924Z,76.60
2017-07-15T23:44:18.695Z,76.90
2017-07-15T23:46:44.720Z,76.90
2017-07-15T23:49:10.731Z,77.10
2017-07-15T23:51:36.779Z,77.20
2017-07-15T23:54:02.783Z,77.60
2017-07-15T23:56:28.816Z,77.80
2017-07-15T23:58:54.859Z,77.80
